Logo AVAMET
Benvolgut visitant, si us plau, ingressa Recuperar contrasenya

Inforatge Catarroja Ajuntament

Dades diàries. Acumulats / Últims 30 dies disponibles

Data Temperatura (°C) Humitat rel. (%) Pressió rel. (hPa) Vent (km/h) Precipitació
Mínima Mitjana Màxima Amplitud
tèrmica
Mínima Mitjana Màxima Mínima Mitjana Màxima Predom. Mitjana Ràfega
màxima
Total
(mm)
Índex-n
Mínima Mitjana Màxima Mínima Mitjana Màxima n
0 a 1
P0 max
mm 5'
Dades mensuals acumulades fins l'últim dia disponible
01/2020 2,6 5,4 8,1 9,8 13,2 15,5 18,9 16,3 30 74 92 1.020 1.029 1.035   3,8 51,5 0,0
Dades anuals acumulades fins l'últim dia disponible
2020 2,6 5,4 8,1 9,8 13,2 15,5 18,9 16,3 30 74 92 1.020 1.029 1.035   3,8 51,5 0,0
Últims 30 dies disponibles
18-01-2020 8,1     13,1     17,9 9,8 49 65 74 1.020 1.028 1.033 WSW 6,1 33,8 0,0
17-01-2020 8,0     13,7     18,3 10,3 43 55 85 1.027 1.029 1.033 WSW 10,3 51,5 0,0
16-01-2020 6,7     11,3     17,1 10,4 56 75 86 1.026 1.028 1.030 E 2,9 17,7 0,0
15-01-2020 6,3     11,6     18,9 12,6 43 64 76 1.023 1.025 1.028 WSW 4,5 29,0 0,0
14-01-2020 5,2     9,6     15,5 10,3 38 63 78 1.021 1.022 1.024 W 2,6 14,5 0,0
13-01-2020 2,6     8,8     16,8 14,2 30 65 82 1.022 1.026 1.031 WSW 2,4 30,6 0,0
12-01-2020 4,1     8,0     13,9 9,8 52 74 86 1.030 1.031 1.032 W 3,2 14,5 0,0
11-01-2020 5,7     9,5     14,9 9,2 47 69 84 1.029 1.031 1.033 WNW 4,8 20,9 0,0
10-01-2020 6,9     10,4     15,1 8,2 50 75 91 1.024 1.026 1.030 WNW 5,3 37,0 0,0
09-01-2020 5,5     9,3     14,6 9,1 65 83 91 1.025 1.028 1.032 W 3,2 17,7 0,0
08-01-2020 4,9     8,7     14,6 9,7 74 85 92 1.028 1.031 1.033 WNW 1,8 11,3 0,0
07-01-2020 4,2     8,8     14,5 10,3 57 81 89 1.029 1.031 1.033 W 3,1 16,1 0,0
06-01-2020 5,2     9,2     14,5 9,3 67 81 87 1.028 1.030 1.031 WNW 4,7 16,1 0,0
05-01-2020 4,9     9,7     16,9 12,0 47 75 87 1.027 1.030 1.032 W 2,6 16,1 0,0
04-01-2020 5,6     9,6     15,4 9,8 54 76 89 1.032 1.033 1.035 WSW 3,5 19,3 0,0
03-01-2020 4,2     8,4     13,2 9,0 68 85 91 1.030 1.032 1.034 WNW 2,1 11,3 0,0
02-01-2020 5,1     8,7     13,6 8,5 69 84 90 1.031 1.032 1.034 WSW 3,1 14,5 0,0
01-01-2020 4,7     8,7     13,7 9,0 69 83 90 1.031 1.033 1.034 W 2,6 12,9 0,0
31-12-2019 5,4     9,0     14,8 9,4 64 82 89 1.032 1.033 1.035 OSO 3,4 14,5 0,0
30-12-2019 8,1     10,6     15,5 7,4 62 78 86 1.032 1.033 1.035 WNW 4,0 16,1 0,0
29-12-2019 7,2     10,0     13,9 6,7 68 80 89 1.031 1.033 1.035 WNW 4,7 16,1 0,0
28-12-2019 6,0     10,2     13,7 7,7 61 83 93 1.030 1.031 1.033 WNW 2,6 12,9 0,0
27-12-2019 8,1     11,9     16,7 8,6 60 79 90 1.028 1.030 1.031 WNW 2,7 12,9 0,0
26-12-2019 10,7     15,6     22,5 11,8 39 60 83 1.022 1.025 1.031 WSW 2,9 19,3 0,0
25-12-2019 11,1     14,0     19,2 8,1 51 71 82 1.023 1.024 1.027 W 2,4 11,3 0,0
24-12-2019 12,4     16,7     22,9 10,5 43 57 74 1.025 1.027 1.029 WSW 6,1 29,0 0,0
23-12-2019 13,8     16,8     19,9 6,1 42 53 59 1.019 1.025 1.028 WSW 12,1 38,6 0,0
22-12-2019 16,3     18,3     20,5 4,2 46 53 58 1.007 1.014 1.019 WNW 23,5 85,3 0,0
21-12-2019 17,9     21,2     24,6 6,7 40 60 76 1.000 1.003 1.007 W 26,7 93,3 0,0
20-12-2019 11,6     18,8     22,0 10,4 56 64 81 999 1.002 1.008 WSW 12,4 62,8 0,0
Últims 13 mesos disponibles
12/2019 5,4 10,8 17,9 13,8 13,1 17,6 24,6 19,2 53 70 92 1.002 1.019 1.033 WSW 8,6 93,3 76,6
11/2019 5,7 12,1 20,9 15,6 15,7 19,7 28,8 23,1 41 57 78 999 1.011 1.019 WSW 11,7 75,6 3,6
10/2019 11,8 16,4 20,5 20,3 16,1 25,1 34,9 23,1 42 67 83 1.008 1.017 1.022 WNW 5,5 51,5 25,0
09/2019 15,4 20,4 24,1 23,9 21,8 27,5 33,9 18,5 40 72 84 1.010 1.018 1.025 SSE 6,0 56,3 94,6
08/2019 18,4 22,7 27,2 26,5 27,1 30,4 41,4 23,0 43 71 79 1.011 1.016 1.021 SSE 5,6 55,6 10,6
07/2019 21,4 23,0 25,3 26,8 27,7 30,6 37,6 16,2 48 68 77 1.006 1.014 1.021 SSE 6,1 56,3 6,8
06/2019 12,9 18,3 22,8 22,7 21,4 26,7 33,7 20,8 38 66 79 1.009 1.016 1.022 SE 6,2 59,6 0,0
05/2019 9,1 14,7 20,9 18,8 18,8 23,0 32,3 23,2 49 67 82 1.005 1.016 1.025 SSE 6,7 56,3 18,0
04/2019 8,8 11,6 14,3 15,5 15,4 19,9 30,3 21,5 41 66 95 1.000 1.013 1.025 SSE 8,8 63,0 85,2
03/2019 6,1 8,3 10,6 13,5 13,3 18,4 22,6 16,5 52 63 84 1.016 1.024 1.028 SSO 5,3 38,9 13,2
02/2019 3,9 7,3 10,9 12,0 12,7 17,7 25,3 21,4 35 65 78 995 1.025 1.034 SSO 6,4 72,4 0,0
01/2019 1,2 6,3 12,6 10,9 11,7 16,6 20,7 19,5 43 60 79 1.002 1.019 1.031 OSO 6,9 62,9 0,0
12/2018 4,8 9,3 14,0 13,0 13,3 18,1 23,1 18,3 56 69 87 1.009 1.025 1.031 O 5,9 50,0 11,4
Tots els anys disponibles
2019 1,2 14,7 27,2 18,7 11,7 23,1 41,4 40,2 35 66 95 995 1.017 1.034 WSW 7,1 93,3 333,6
2018 2,4 14,7 25,6 18,5 8,7 22,7 36,2 33,8 40 68 93 993 1.016 1.033 S 6,8 88,8 812,8
2017 0,4 14,4 26,0 18,5 9,2 22,8 36,2 35,8 31 68 90 997 1.019 1.036 SSO 5,3 88,8 340,4
Temperatura (°C)
Humitat relativa (%)
Velocitat del vent i ràfega màxima (km/h)
Direcció del vent (°)
Pressió (hPa)
Precipitació (mm)
Nota sobre les dades: s'avisa a l'usuari de la provisionalitat i no oficialitat d'aquestes dades
Logo AVAMET blanc
Web allotjada a Sollutia
Llicència de Creative CommonsLa web d'AVAMET i els seus continguts estan subjectes a una llicència de
Reconeixement - No Comercial - Compartir igual
Últimes estacions: Xixona - Els Ameradors (Soci), Agres - El Tossal (Soci), Xàbia - Bevenguts (MeteoXàbia), Llíria (Aj. Soci/Inforatge), Orihuela - Lo Capitán, Cox & Guardamar del Segura - horta (Meteorihuela), l'Alcúdia - Carriona & el Real de Gandia (Inforatge), Benicàssim - les Vil·les (Soci),  l'Alfàs del Pi - l'Albir (Soci), - - -